sensor_id;sensor_type;location;lat;lon;timestamp;pressure;altitude;pressure_sealevel;temperature;humidity
43818;BME280;29868;47.360;18.984;2024-03-23T14:54:09;63491.78;;;19.20;52.13
43818;BME280;29868;47.360;18.984;2024-03-23T14:56:35;63485.94;;;19.13;51.83
43818;BME280;29868;47.360;18.984;2024-03-23T14:59:01;63474.34;;;19.05;53.21
43818;BME280;29868;47.360;18.984;2024-03-23T15:01:26;63464.00;;;18.93;54.45
43818;BME280;29868;47.360;18.984;2024-03-23T15:03:52;63458.00;;;18.90;55.01
43818;BME280;29868;47.360;18.984;2024-03-23T15:06:19;63453.31;;;18.83;56.09
43818;BME280;29868;47.360;18.984;2024-03-23T15:08:44;63447.31;;;18.80;55.84
43818;BME280;29868;47.360;18.984;2024-03-23T15:11:10;63429.84;;;18.64;56.28
43818;BME280;29868;47.360;18.984;2024-03-23T15:13:37;63438.31;;;18.72;55.33
43818;BME280;29868;47.360;18.984;2024-03-23T15:16:03;63439.00;;;18.68;54.97
43818;BME280;29868;47.360;18.984;2024-03-23T15:18:29;63435.63;;;18.65;56.14
43818;BME280;29868;47.360;18.984;2024-03-23T15:21:00;63431.69;;;18.61;55.87
43818;BME280;29868;47.360;18.984;2024-03-23T15:23:30;63425.34;;;18.60;56.73
43818;BME280;29868;47.360;18.984;2024-03-23T15:26:00;63418.03;;;18.54;56.16
43818;BME280;29868;47.360;18.984;2024-03-23T15:28:26;63417.25;;;18.51;56.73
43818;BME280;29868;47.360;18.984;2024-03-23T15:31:18;63415.22;;;18.51;57.56
43818;BME280;29868;47.360;18.984;2024-03-23T15:33:43;63406.44;;;18.45;58.70
43818;BME280;29868;47.360;18.984;2024-03-23T15:36:09;63406.78;;;18.43;59.20
43818;BME280;29868;47.360;18.984;2024-03-23T15:38:34;63393.28;;;18.31;59.94
43818;BME280;29868;47.360;18.984;2024-03-23T15:41:00;63387.66;;;18.26;60.79
43818;BME280;29868;47.360;18.984;2024-03-23T15:43:26;63380.34;;;18.19;62.44
43818;BME280;29868;47.360;18.984;2024-03-23T15:45:59;63362.47;;;17.98;63.78
43818;BME280;29868;47.360;18.984;2024-03-23T15:48:26;63359.72;;;18.03;63.48
43818;BME280;29868;47.360;18.984;2024-03-23T15:50:56;63348.66;;;17.88;64.30
43818;BME280;29868;47.360;18.984;2024-03-23T15:53:23;63333.09;;;17.77;64.30
43818;BME280;29868;47.360;18.984;2024-03-23T15:55:59;63323.19;;;17.70;65.67
43818;BME280;29868;47.360;18.984;2024-03-23T15:58:26;63316.97;;;17.64;65.24
43818;BME280;29868;47.360;18.984;2024-03-23T16:03:20;63311.16;;;17.57;66.12
43818;BME280;29868;47.360;18.984;2024-03-23T16:05:56;63312.28;;;17.58;66.44
43818;BME280;29868;47.360;18.984;2024-03-23T16:08:22;63310.38;;;17.54;65.67
43818;BME280;29868;47.360;18.984;2024-03-23T16:10:48;63300.25;;;17.44;66.19
43818;BME280;29868;47.360;18.984;2024-03-23T16:13:14;63297.25;;;17.39;66.76
43818;BME280;29868;47.360;18.984;2024-03-23T16:15:40;63293.16;;;17.40;66.27
43818;BME280;29868;47.360;18.984;2024-03-23T16:18:05;63290.91;;;17.38;65.86
43818;BME280;29868;47.360;18.984;2024-03-23T16:20:31;63287.56;;;17.35;64.98
43818;BME280;29868;47.360;18.984;2024-03-23T16:23:02;63276.88;;;17.25;65.00
43818;BME280;29868;47.360;18.984;2024-03-23T16:25:28;63270.13;;;17.19;66.44
43818;BME280;29868;47.360;18.984;2024-03-23T16:27:53;63276.31;;;17.25;66.06
43818;BME280;29868;47.360;18.984;2024-03-23T16:30:19;63254.97;;;17.06;66.86
43818;BME280;29868;47.360;18.984;2024-03-23T16:32:48;63230.78;;;16.84;68.95
43818;BME280;29868;47.360;18.984;2024-03-23T16:35:14;63214.47;;;16.69;69.21
43818;BME280;29868;47.360;18.984;2024-03-23T16:37:40;63204.00;;;16.62;69.85
43818;BME280;29868;47.360;18.984;2024-03-23T16:40:07;63180.22;;;16.38;71.71
43818;BME280;29868;47.360;18.984;2024-03-23T16:42:34;63162.25;;;16.21;73.75
43818;BME280;29868;47.360;18.984;2024-03-23T16:45:00;63149.13;;;16.07;73.37
43818;BME280;29868;47.360;18.984;2024-03-23T16:47:25;63138.13;;;15.99;73.44
43818;BME280;29868;47.360;18.984;2024-03-23T16:49:52;63144.66;;;16.03;73.62
43818;BME280;29868;47.360;18.984;2024-03-23T16:52:18;63147.66;;;16.08;74.61
43818;BME280;29868;47.360;18.984;2024-03-23T16:54:43;63138.31;;;16.02;75.33
43818;BME280;29868;47.360;18.984;2024-03-23T16:57:08;63119.81;;;15.85;76.25
43818;BME280;29868;47.360;18.984;2024-03-23T16:59:34;63108.38;;;15.72;78.51
43818;BME280;29868;47.360;18.984;2024-03-23T17:01:59;63099.72;;;15.62;80.48
43818;BME280;29868;47.360;18.984;2024-03-23T17:04:25;63089.28;;;15.55;81.06
43818;BME280;29868;47.360;18.984;2024-03-23T17:06:51;63085.91;;;15.52;82.90
43818;BME280;29868;47.360;18.984;2024-03-23T17:09:16;63082.88;;;15.47;82.48
43818;BME280;29868;47.360;18.984;2024-03-23T17:11:42;63069.84;;;15.40;83.53
43818;BME280;29868;47.360;18.984;2024-03-23T17:14:12;63122.97;;;15.86;80.82
43818;BME280;29868;47.360;18.984;2024-03-23T17:16:40;63043.63;;;15.11;79.65
43818;BME280;29868;47.360;18.984;2024-03-23T17:19:05;62964.41;;;14.44;80.67
43818;BME280;29868;47.360;18.984;2024-03-23T17:21:31;62926.31;;;14.09;82.37
43818;BME280;29868;47.360;18.984;2024-03-23T17:23:57;62889.13;;;13.73;84.81
43818;BME280;29868;47.360;18.984;2024-03-23T17:26:24;62871.56;;;13.54;86.10
43818;BME280;29868;47.360;18.984;2024-03-23T17:28:49;62848.25;;;13.35;87.74
43818;BME280;29868;47.360;18.984;2024-03-23T17:31:19;62822.91;;;13.17;89.89
43818;BME280;29868;47.360;18.984;2024-03-23T17:33:46;62814.31;;;13.07;91.50
43818;BME280;29868;47.360;18.984;2024-03-23T17:36:14;62810.94;;;13.04;92.93
43818;BME280;29868;47.360;18.984;2024-03-23T17:38:40;62796.38;;;12.90;94.07
43818;BME280;29868;47.360;18.984;2024-03-23T17:41:05;62787.00;;;12.77;95.41
43818;BME280;29868;47.360;18.984;2024-03-23T17:43:31;62770.97;;;12.65;97.53
43818;BME280;29868;47.360;18.984;2024-03-23T17:45:57;62762.03;;;12.57;100.00
43818;BME280;29868;47.360;18.984;2024-03-23T17:48:23;62746.03;;;12.45;100.00
43818;BME280;29868;47.360;18.984;2024-03-23T17:50:48;62737.88;;;12.39;100.00
43818;BME280;29868;47.360;18.984;2024-03-23T17:53:14;62735.63;;;12.37;100.00
43818;BME280;29868;47.360;18.984;2024-03-23T17:55:39;62729.81;;;12.30;100.00
43818;BME280;29868;47.360;18.984;2024-03-23T17:58:05;62726.59;;;12.22;100.00
43818;BME280;29868;47.360;18.984;2024-03-23T18:00:30;62711.72;;;12.11;100.00
43818;BME280;29868;47.360;18.984;2024-03-23T18:02:56;62706.31;;;12.08;100.00
43818;BME280;29868;47.360;18.984;2024-03-23T18:05:21;62699.06;;;12.02;100.00
43818;BME280;29868;47.360;18.984;2024-03-23T18:07:47;62701.09;;;12.01;100.00
43818;BME280;29868;47.360;18.984;2024-03-23T18:10:13;62692.34;;;11.96;100.00
43818;BME280;29868;47.360;18.984;2024-03-23T18:12:38;62687.66;;;11.89;100.00
43818;BME280;29868;47.360;18.984;2024-03-23T18:15:04;62680.06;;;11.84;100.00
43818;BME280;29868;47.360;18.984;2024-03-23T18:17:30;62676.69;;;11.81;100.00
43818;BME280;29868;47.360;18.984;2024-03-23T18:19:55;62663.25;;;11.69;100.00
43818;BME280;29868;47.360;18.984;2024-03-23T18:22:21;62652.44;;;11.57;100.00
43818;BME280;29868;47.360;18.984;2024-03-23T18:24:46;62645.72;;;11.51;100.00
43818;BME280;29868;47.360;18.984;2024-03-23T18:27:12;62629.41;;;11.40;100.00
43818;BME280;29868;47.360;18.984;2024-03-23T18:29:41;62624.16;;;11.33;100.00
43818;BME280;29868;47.360;18.984;2024-03-23T18:32:06;62618.56;;;11.28;100.00
43818;BME280;29868;47.360;18.984;2024-03-23T18:34:32;62594.19;;;11.08;100.00
43818;BME280;29868;47.360;18.984;2024-03-23T18:36:57;62583.94;;;10.96;99.38
43818;BME280;29868;47.360;18.984;2024-03-23T18:39:23;62575.00;;;10.88;100.00
43818;BME280;29868;47.360;18.984;2024-03-23T18:41:48;62569.41;;;10.83;100.00
43818;BME280;29868;47.360;18.984;2024-03-23T18:44:14;62569.75;;;10.81;99.24
43818;BME280;29868;47.360;18.984;2024-03-23T18:46:39;62563.41;;;10.73;99.28
43818;BME280;29868;47.360;18.984;2024-03-23T18:49:05;62555.22;;;10.68;100.00
43818;BME280;29868;47.360;18.984;2024-03-23T18:51:30;62549.66;;;10.63;100.00
43818;BME280;29868;47.360;18.984;2024-03-23T18:53:56;62549.53;;;10.67;100.00
43818;BME280;29868;47.360;18.984;2024-03-23T18:56:27;62535.56;;;10.55;100.00
43818;BME280;29868;47.360;18.984;2024-03-23T18:58:52;62542.28;;;10.61;100.00
43818;BME280;29868;47.360;18.984;2024-03-23T19:01:18;62534.00;;;10.48;100.00
43818;BME280;29868;47.360;18.984;2024-03-23T19:03:45;62514.38;;;10.35;100.00
43818;BME280;29868;47.360;18.984;2024-03-23T19:06:10;62515.84;;;10.34;100.00
43818;BME280;29868;47.360;18.984;2024-03-23T19:08:36;62490.56;;;10.16;100.00
43818;BME280;29868;47.360;18.984;2024-03-23T19:11:02;62478.06;;;10.02;100.00
43818;BME280;29868;47.360;18.984;2024-03-23T19:13:28;62472.50;;;9.97;100.00
43818;BME280;29868;47.360;18.984;2024-03-23T19:15:54;62465.78;;;9.91;100.00
43818;BME280;29868;47.360;18.984;2024-03-23T19:18:20;62459.66;;;9.85;100.00
43818;BME280;29868;47.360;18.984;2024-03-23T19:20:53;62465.38;;;9.86;100.00
43818;BME280;29868;47.360;18.984;2024-03-23T19:23:19;62459.22;;;9.80;100.00
43818;BME280;29868;47.360;18.984;2024-03-23T19:25:51;62448.50;;;9.75;100.00
43818;BME280;29868;47.360;18.984;2024-03-23T19:28:17;62451.06;;;9.75;100.00
43818;BME280;29868;47.360;18.984;2024-03-23T19:30:42;62447.41;;;9.74;100.00
43818;BME280;29868;47.360;18.984;2024-03-23T19:33:08;62449.75;;;9.71;100.00
43818;BME280;29868;47.360;18.984;2024-03-23T19:35:34;62439.38;;;9.64;100.00
43818;BME280;29868;47.360;18.984;2024-03-23T19:38:00;62429.88;;;9.56;100.00
43818;BME280;29868;47.360;18.984;2024-03-23T19:40:26;62430.78;;;9.54;100.00
43818;BME280;29868;47.360;18.984;2024-03-23T19:42:51;62421.28;;;9.45;100.00
43818;BME280;29868;47.360;18.984;2024-03-23T19:45:17;62405.91;;;9.34;100.00
43818;BME280;29868;47.360;18.984;2024-03-23T19:47:42;62376.00;;;9.09;100.00
43818;BME280;29868;47.360;18.984;2024-03-23T19:50:08;62343.81;;;8.74;100.00
43818;BME280;29868;47.360;18.984;2024-03-23T19:52:34;62313.16;;;8.46;100.00
43818;BME280;29868;47.360;18.984;2024-03-23T19:55:01;62286.84;;;8.27;100.00
43818;BME280;29868;47.360;18.984;2024-03-23T19:57:27;62266.03;;;8.05;100.00
43818;BME280;29868;47.360;18.984;2024-03-23T19:59:52;62242.31;;;7.86;100.00
43818;BME280;29868;47.360;18.984;2024-03-23T20:02:18;62233.97;;;7.78;100.00
43818;BME280;29868;47.360;18.984;2024-03-23T20:04:43;62226.16;;;7.71;100.00
43818;BME280;29868;47.360;18.984;2024-03-23T20:07:09;62217.03;;;7.61;100.00
43818;BME280;29868;47.360;18.984;2024-03-23T20:09:35;62205.56;;;7.52;100.00
43818;BME280;29868;47.360;18.984;2024-03-23T20:12:01;62198.91;;;7.46;100.00
43818;BME280;29868;47.360;18.984;2024-03-23T20:14:26;62196.44;;;7.42;100.00
43818;BME280;29868;47.360;18.984;2024-03-23T20:16:52;62189.66;;;7.40;100.00
43818;BME280;29868;47.360;18.984;2024-03-23T20:19:17;62186.22;;;7.30;100.00
43818;BME280;29868;47.360;18.984;2024-03-23T20:21:43;62179.44;;;7.28;100.00
43818;BME280;29868;47.360;18.984;2024-03-23T20:24:08;62174.44;;;7.24;100.00
43818;BME280;29868;47.360;18.984;2024-03-23T20:26:33;62176.63;;;7.26;100.00
43818;BME280;29868;47.360;18.984;2024-03-23T20:28:59;62169.97;;;7.20;100.00
43818;BME280;29868;47.360;18.984;2024-03-23T20:31:24;62164.41;;;7.15;100.00
43818;BME280;29868;47.360;18.984;2024-03-23T20:33:50;62164.97;;;7.15;100.00
43818;BME280;29868;47.360;18.984;2024-03-23T20:36:15;62162.94;;;7.16;100.00
43818;BME280;29868;47.360;18.984;2024-03-23T20:38:41;62166.09;;;7.16;100.00
43818;BME280;29868;47.360;18.984;2024-03-23T20:41:06;62170.53;;;7.20;100.00
43818;BME280;29868;47.360;18.984;2024-03-23T20:43:32;62164.75;;;7.13;100.00
43818;BME280;29868;47.360;18.984;2024-03-23T20:46:02;62172.19;;;7.22;100.00
43818;BME280;29868;47.360;18.984;2024-03-23T20:48:28;62176.09;;;7.25;100.00
43818;BME280;29868;47.360;18.984;2024-03-23T20:51:04;62186.31;;;7.37;100.00
43818;BME280;29868;47.360;18.984;2024-03-23T20:53:30;62196.13;;;7.44;100.00
43818;BME280;29868;47.360;18.984;2024-03-23T20:56:00;62197.22;;;7.45;100.00
43818;BME280;29868;47.360;18.984;2024-03-23T20:58:27;62202.91;;;7.45;100.00
43818;BME280;29868;47.360;18.984;2024-03-23T21:00:58;62194.66;;;7.45;100.00
43818;BME280;29868;47.360;18.984;2024-03-23T21:03:23;62201.47;;;7.46;100.00
43818;BME280;29868;47.360;18.984;2024-03-23T21:05:52;62201.13;;;7.48;100.00
43818;BME280;29868;47.360;18.984;2024-03-23T21:08:17;62201.69;;;7.49;100.00
43818;BME280;29868;47.360;18.984;2024-03-23T21:10:51;62213.47;;;7.55;100.00
43818;BME280;29868;47.360;18.984;2024-03-23T21:13:17;62196.69;;;7.44;100.00
43818;BME280;29868;47.360;18.984;2024-03-23T21:15:52;62208.91;;;7.55;100.00
43818;BME280;29868;47.360;18.984;2024-03-23T21:18:18;62209.47;;;7.56;100.00
43818;BME280;29868;47.360;18.984;2024-03-23T21:20:44;62213.69;;;7.57;100.00
43818;BME280;29868;47.360;18.984;2024-03-23T21:23:09;62213.69;;;7.57;100.00
43818;BME280;29868;47.360;18.984;2024-03-23T21:25:35;62218.38;;;7.64;100.00
43818;BME280;29868;47.360;18.984;2024-03-23T21:28:01;62219.72;;;7.68;100.00
43818;BME280;29868;47.360;18.984;2024-03-23T21:30:26;62218.94;;;7.65;100.00
43818;BME280;29868;47.360;18.984;2024-03-23T21:32:52;62223.50;;;7.64;100.00
43818;BME280;29868;47.360;18.984;2024-03-23T21:35:18;62218.72;;;7.62;100.00
43818;BME280;29868;47.360;18.984;2024-03-23T21:37:45;62225.38;;;7.68;100.00
43818;BME280;29868;47.360;18.984;2024-03-23T21:40:11;62228.50;;;7.69;100.00
43818;BME280;29868;47.360;18.984;2024-03-23T21:42:36;62231.84;;;7.72;100.00
43818;BME280;29868;47.360;18.984;2024-03-23T21:45:02;62228.19;;;7.71;100.00
43818;BME280;29868;47.360;18.984;2024-03-23T21:47:27;62224.63;;;7.65;100.00
43818;BME280;29868;47.360;18.984;2024-03-23T21:49:53;62218.94;;;7.65;100.00
43818;BME280;29868;47.360;18.984;2024-03-23T21:52:18;62215.59;;;7.62;100.00
43818;BME280;29868;47.360;18.984;2024-03-23T21:54:44;62217.50;;;7.66;100.00
43818;BME280;29868;47.360;18.984;2024-03-23T21:57:09;62222.63;;;7.66;100.00
43818;BME280;29868;47.360;18.984;2024-03-23T21:59:35;62222.81;;;7.68;100.00
43818;BME280;29868;47.360;18.984;2024-03-23T22:02:00;62225.63;;;7.71;100.00
43818;BME280;29868;47.360;18.984;2024-03-23T22:04:26;62233.72;;;7.76;100.00
43818;BME280;29868;47.360;18.984;2024-03-23T22:06:52;62229.16;;;7.76;100.00
43818;BME280;29868;47.360;18.984;2024-03-23T22:09:17;62243.75;;;7.85;100.00
43818;BME280;29868;47.360;18.984;2024-03-23T22:11:43;62249.00;;;7.92;100.00
43818;BME280;29868;47.360;18.984;2024-03-23T22:14:08;62241.75;;;7.86;100.00
43818;BME280;29868;47.360;18.984;2024-03-23T22:16:35;62248.22;;;7.89;100.00
43818;BME280;29868;47.360;18.984;2024-03-23T22:19:00;62246.75;;;7.90;100.00
43818;BME280;29868;47.360;18.984;2024-03-23T22:21:26;62241.19;;;7.85;100.00
43818;BME280;29868;47.360;18.984;2024-03-23T22:23:51;62233.84;;;7.83;100.00
43818;BME280;29868;47.360;18.984;2024-03-23T22:26:16;62237.84;;;7.82;100.00
43818;BME280;29868;47.360;18.984;2024-03-23T22:28:45;62239.19;;;7.86;100.00
43818;BME280;29868;47.360;18.984;2024-03-23T22:31:11;62241.19;;;7.85;100.00
43818;BME280;29868;47.360;18.984;2024-03-23T22:33:36;62232.31;;;7.77;100.00
43818;BME280;29868;47.360;18.984;2024-03-23T22:36:02;62240.97;;;7.83;100.00
43818;BME280;29868;47.360;18.984;2024-03-23T22:38:28;62236.19;;;7.80;100.00
43818;BME280;29868;47.360;18.984;2024-03-23T22:41:03;62241.53;;;7.83;100.00
43818;BME280;29868;47.360;18.984;2024-03-23T22:43:31;62231.94;;;7.79;100.00
43818;BME280;29868;47.360;18.984;2024-03-23T22:46:04;62243.41;;;7.87;100.00
43818;BME280;29868;47.360;18.984;2024-03-23T22:48:32;62247.44;;;7.86;100.00
43818;BME280;29868;47.360;18.984;2024-03-23T22:51:00;62253.78;;;7.94;100.00
43818;BME280;29868;47.360;18.984;2024-03-23T22:53:26;62258.47;;;8.01;100.00
43818;BME280;29868;47.360;18.984;2024-03-23T22:55:53;62264.38;;;8.04;100.00
43818;BME280;29868;47.360;18.984;2024-03-23T22:58:19;62257.13;;;7.97;100.00
43818;BME280;29868;47.360;18.984;2024-03-23T23:00:45;62264.91;;;8.04;100.00
43818;BME280;29868;47.360;18.984;2024-03-23T23:03:15;62265.16;;;8.07;100.00
43818;BME280;29868;47.360;18.984;2024-03-23T23:05:41;62269.59;;;8.11;100.00
43818;BME280;29868;47.360;18.984;2024-03-23T23:08:11;62281.41;;;8.17;100.00
43818;BME280;29868;47.360;18.984;2024-03-23T23:10:37;62280.28;;;8.16;100.00
43818;BME280;29868;47.360;18.984;2024-03-23T23:13:04;62279.06;;;8.20;100.00
43818;BME280;29868;47.360;18.984;2024-03-23T23:15:32;62279.06;;;8.20;100.00
43818;BME280;29868;47.360;18.984;2024-03-23T23:17:57;62272.59;;;8.16;100.00
43818;BME280;29868;47.360;18.984;2024-03-23T23:20:23;62274.38;;;8.13;100.00
43818;BME280;29868;47.360;18.984;2024-03-23T23:22:48;62273.81;;;8.13;100.00
43818;BME280;29868;47.360;18.984;2024-03-23T23:25:13;62269.16;;;8.06;100.00
43818;BME280;29868;47.360;18.984;2024-03-23T23:27:39;62259.34;;;7.99;100.00
43818;BME280;29868;47.360;18.984;2024-03-23T23:30:07;62252.91;;;7.96;100.00
43818;BME280;29868;47.360;18.984;2024-03-23T23:32:33;62250.88;;;7.96;100.00
43818;BME280;29868;47.360;18.984;2024-03-23T23:34:59;62246.22;;;7.90;100.00
43818;BME280;29868;47.360;18.984;2024-03-23T23:37:25;62239.53;;;7.84;100.00
43818;BME280;29868;47.360;18.984;2024-03-23T23:39:51;62243.75;;;7.85;100.00
43818;BME280;29868;47.360;18.984;2024-03-23T23:42:16;62241.19;;;7.85;100.00
43818;BME280;29868;47.360;18.984;2024-03-23T23:44:42;62236.19;;;7.80;100.00
43818;BME280;29868;47.360;18.984;2024-03-23T23:47:07;62237.84;;;7.82;100.00
43818;BME280;29868;47.360;18.984;2024-03-23T23:49:33;62231.53;;;7.74;100.00
43818;BME280;29868;47.360;18.984;2024-03-23T23:51:58;62230.41;;;7.73;100.00
43818;BME280;29868;47.360;18.984;2024-03-23T23:54:23;62220.06;;;7.66;100.00
43818;BME280;29868;47.360;18.984;2024-03-23T23:56:49;62220.72;;;7.62;100.00
43818;BME280;29868;47.360;18.984;2024-03-23T23:59:14;62210.56;;;7.57;100.00
